sensor_id;sensor_type;location;lat;lon;timestamp;P1;durP1;ratioP1;P2;durP2;ratioP2
16466;SDS011;8344;47.560;9.710;2023-04-29T00:00:50;0.40;;;0.40;;
16466;SDS011;8344;47.560;9.710;2023-04-29T00:03:15;0.40;;;0.40;;
16466;SDS011;8344;47.560;9.710;2023-04-29T00:05:41;0.40;;;0.40;;
16466;SDS011;8344;47.560;9.710;2023-04-29T00:08:06;0.20;;;0.20;;
16466;SDS011;8344;47.560;9.710;2023-04-29T00:10:32;0.30;;;0.30;;
16466;SDS011;8344;47.560;9.710;2023-04-29T00:12:57;0.40;;;0.40;;
16466;SDS011;8344;47.560;9.710;2023-04-29T00:15:22;0.40;;;0.40;;
16466;SDS011;8344;47.560;9.710;2023-04-29T00:17:47;0.40;;;0.40;;
16466;SDS011;8344;47.560;9.710;2023-04-29T00:20:13;0.20;;;0.20;;
16466;SDS011;8344;47.560;9.710;2023-04-29T00:22:38;0.30;;;0.30;;
16466;SDS011;8344;47.560;9.710;2023-04-29T00:25:04;0.30;;;0.30;;
16466;SDS011;8344;47.560;9.710;2023-04-29T00:27:30;0.30;;;0.30;;
16466;SDS011;8344;47.560;9.710;2023-04-29T00:29:55;0.40;;;0.40;;
16466;SDS011;8344;47.560;9.710;2023-04-29T00:32:21;0.20;;;0.20;;
16466;SDS011;8344;47.560;9.710;2023-04-29T00:34:46;0.30;;;0.30;;
16466;SDS011;8344;47.560;9.710;2023-04-29T00:37:12;0.30;;;0.30;;
16466;SDS011;8344;47.560;9.710;2023-04-29T00:39:37;0.30;;;0.30;;
16466;SDS011;8344;47.560;9.710;2023-04-29T00:42:02;0.30;;;0.30;;
16466;SDS011;8344;47.560;9.710;2023-04-29T00:44:28;0.30;;;0.30;;
16466;SDS011;8344;47.560;9.710;2023-04-29T00:46:53;0.30;;;0.30;;
16466;SDS011;8344;47.560;9.710;2023-04-29T00:49:19;0.40;;;0.40;;
16466;SDS011;8344;47.560;9.710;2023-04-29T00:51:45;0.30;;;0.30;;
16466;SDS011;8344;47.560;9.710;2023-04-29T00:54:10;0.40;;;0.40;;
16466;SDS011;8344;47.560;9.710;2023-04-29T00:56:36;0.30;;;0.30;;
16466;SDS011;8344;47.560;9.710;2023-04-29T00:59:05;0.40;;;0.40;;
16466;SDS011;8344;47.560;9.710;2023-04-29T01:01:31;0.30;;;0.30;;
16466;SDS011;8344;47.560;9.710;2023-04-29T01:03:56;0.40;;;0.40;;
16466;SDS011;8344;47.560;9.710;2023-04-29T01:08:59;0.30;;;0.30;;
16466;SDS011;8344;47.560;9.710;2023-04-29T01:11:30;0.30;;;0.30;;
16466;SDS011;8344;47.560;9.710;2023-04-29T01:14:00;0.30;;;0.30;;
16466;SDS011;8344;47.560;9.710;2023-04-29T01:16:37;0.30;;;0.30;;
16466;SDS011;8344;47.560;9.710;2023-04-29T01:19:49;0.30;;;0.30;;
16466;SDS011;8344;47.560;9.710;2023-04-29T01:21:58;0.28;;;0.28;;
16466;SDS011;8344;47.560;9.710;2023-04-29T01:24:23;0.20;;;0.20;;
16466;SDS011;8344;47.560;9.710;2023-04-29T01:26:55;0.30;;;0.30;;
16466;SDS011;8344;47.560;9.710;2023-04-29T01:32:12;0.30;;;0.30;;
16466;SDS011;8344;47.560;9.710;2023-04-29T01:34:58;0.30;;;0.30;;
16466;SDS011;8344;47.560;9.710;2023-04-29T01:37:32;0.40;;;0.40;;
16466;SDS011;8344;47.560;9.710;2023-04-29T01:45:20;0.30;;;0.30;;
16466;SDS011;8344;47.560;9.710;2023-04-29T01:47:46;0.30;;;0.30;;
16466;SDS011;8344;47.560;9.710;2023-04-29T01:50:13;0.30;;;0.30;;
16466;SDS011;8344;47.560;9.710;2023-04-29T01:52:38;0.30;;;0.30;;
16466;SDS011;8344;47.560;9.710;2023-04-29T01:55:04;0.28;;;0.28;;
16466;SDS011;8344;47.560;9.710;2023-04-29T01:57:30;0.30;;;0.30;;
16466;SDS011;8344;47.560;9.710;2023-04-29T01:59:55;0.30;;;0.30;;
16466;SDS011;8344;47.560;9.710;2023-04-29T02:02:21;0.30;;;0.30;;
16466;SDS011;8344;47.560;9.710;2023-04-29T02:04:47;0.40;;;0.40;;
16466;SDS011;8344;47.560;9.710;2023-04-29T02:07:13;0.30;;;0.30;;
16466;SDS011;8344;47.560;9.710;2023-04-29T02:09:38;0.30;;;0.30;;
16466;SDS011;8344;47.560;9.710;2023-04-29T02:12:04;0.38;;;0.38;;
16466;SDS011;8344;47.560;9.710;2023-04-29T02:14:29;0.28;;;0.28;;
16466;SDS011;8344;47.560;9.710;2023-04-29T02:16:55;0.35;;;0.35;;
16466;SDS011;8344;47.560;9.710;2023-04-29T02:19:20;0.20;;;0.20;;
16466;SDS011;8344;47.560;9.710;2023-04-29T02:21:46;0.38;;;0.38;;
16466;SDS011;8344;47.560;9.710;2023-04-29T02:24:11;0.30;;;0.30;;
16466;SDS011;8344;47.560;9.710;2023-04-29T02:26:36;0.30;;;0.30;;
16466;SDS011;8344;47.560;9.710;2023-04-29T02:29:02;0.30;;;0.30;;
16466;SDS011;8344;47.560;9.710;2023-04-29T02:31:27;0.30;;;0.30;;
16466;SDS011;8344;47.560;9.710;2023-04-29T02:33:53;0.40;;;0.40;;
16466;SDS011;8344;47.560;9.710;2023-04-29T02:36:18;0.45;;;0.45;;
16466;SDS011;8344;47.560;9.710;2023-04-29T02:38:44;0.30;;;0.30;;
16466;SDS011;8344;47.560;9.710;2023-04-29T02:41:09;0.30;;;0.30;;
16466;SDS011;8344;47.560;9.710;2023-04-29T02:43:34;0.30;;;0.30;;
16466;SDS011;8344;47.560;9.710;2023-04-29T02:46:00;0.30;;;0.30;;
16466;SDS011;8344;47.560;9.710;2023-04-29T02:48:25;0.30;;;0.30;;
16466;SDS011;8344;47.560;9.710;2023-04-29T02:50:50;0.40;;;0.40;;
16466;SDS011;8344;47.560;9.710;2023-04-29T02:53:16;0.40;;;0.40;;
16466;SDS011;8344;47.560;9.710;2023-04-29T02:55:42;0.20;;;0.20;;
16466;SDS011;8344;47.560;9.710;2023-04-29T02:58:07;0.40;;;0.40;;
16466;SDS011;8344;47.560;9.710;2023-04-29T03:00:33;0.40;;;0.40;;
16466;SDS011;8344;47.560;9.710;2023-04-29T03:02:58;0.35;;;0.35;;
16466;SDS011;8344;47.560;9.710;2023-04-29T03:05:24;0.30;;;0.30;;
16466;SDS011;8344;47.560;9.710;2023-04-29T03:07:49;0.30;;;0.30;;
16466;SDS011;8344;47.560;9.710;2023-04-29T03:10:14;0.20;;;0.20;;
16466;SDS011;8344;47.560;9.710;2023-04-29T03:12:40;0.30;;;0.30;;
16466;SDS011;8344;47.560;9.710;2023-04-29T03:15:06;0.30;;;0.30;;
16466;SDS011;8344;47.560;9.710;2023-04-29T03:17:31;0.30;;;0.30;;
16466;SDS011;8344;47.560;9.710;2023-04-29T03:19:58;0.20;;;0.20;;
16466;SDS011;8344;47.560;9.710;2023-04-29T03:22:23;0.30;;;0.30;;
16466;SDS011;8344;47.560;9.710;2023-04-29T03:24:49;0.30;;;0.30;;
16466;SDS011;8344;47.560;9.710;2023-04-29T03:27:14;0.38;;;0.38;;
16466;SDS011;8344;47.560;9.710;2023-04-29T03:29:40;0.30;;;0.30;;
16466;SDS011;8344;47.560;9.710;2023-04-29T03:32:05;0.35;;;0.35;;
16466;SDS011;8344;47.560;9.710;2023-04-29T03:34:31;0.40;;;0.40;;
16466;SDS011;8344;47.560;9.710;2023-04-29T03:36:56;0.40;;;0.40;;
16466;SDS011;8344;47.560;9.710;2023-04-29T03:39:21;0.30;;;0.30;;
16466;SDS011;8344;47.560;9.710;2023-04-29T03:41:47;0.20;;;0.20;;
16466;SDS011;8344;47.560;9.710;2023-04-29T03:44:12;0.30;;;0.30;;
16466;SDS011;8344;47.560;9.710;2023-04-29T03:46:37;0.40;;;0.40;;
16466;SDS011;8344;47.560;9.710;2023-04-29T03:49:03;0.30;;;0.30;;
16466;SDS011;8344;47.560;9.710;2023-04-29T03:51:28;0.30;;;0.30;;
16466;SDS011;8344;47.560;9.710;2023-04-29T03:53:53;0.30;;;0.30;;
16466;SDS011;8344;47.560;9.710;2023-04-29T03:56:22;0.40;;;0.40;;
16466;SDS011;8344;47.560;9.710;2023-04-29T03:58:49;0.30;;;0.30;;
16466;SDS011;8344;47.560;9.710;2023-04-29T04:01:14;0.20;;;0.20;;
16466;SDS011;8344;47.560;9.710;2023-04-29T04:03:40;0.22;;;0.22;;
16466;SDS011;8344;47.560;9.710;2023-04-29T04:06:07;0.30;;;0.30;;
16466;SDS011;8344;47.560;9.710;2023-04-29T04:08:32;0.20;;;0.20;;
16466;SDS011;8344;47.560;9.710;2023-04-29T04:10:58;0.22;;;0.22;;
16466;SDS011;8344;47.560;9.710;2023-04-29T04:13:27;0.30;;;0.30;;
16466;SDS011;8344;47.560;9.710;2023-04-29T04:15:55;0.20;;;0.20;;
16466;SDS011;8344;47.560;9.710;2023-04-29T04:18:20;0.25;;;0.25;;
16466;SDS011;8344;47.560;9.710;2023-04-29T04:20:46;0.30;;;0.30;;
16466;SDS011;8344;47.560;9.710;2023-04-29T04:23:11;0.30;;;0.30;;
16466;SDS011;8344;47.560;9.710;2023-04-29T04:25:37;0.30;;;0.30;;
16466;SDS011;8344;47.560;9.710;2023-04-29T04:28:02;0.22;;;0.22;;
16466;SDS011;8344;47.560;9.710;2023-04-29T04:30:27;0.28;;;0.28;;
16466;SDS011;8344;47.560;9.710;2023-04-29T04:32:53;0.20;;;0.20;;
16466;SDS011;8344;47.560;9.710;2023-04-29T04:35:18;0.30;;;0.30;;
16466;SDS011;8344;47.560;9.710;2023-04-29T04:37:43;0.20;;;0.20;;
16466;SDS011;8344;47.560;9.710;2023-04-29T04:40:09;0.30;;;0.30;;
16466;SDS011;8344;47.560;9.710;2023-04-29T04:42:35;0.22;;;0.22;;
16466;SDS011;8344;47.560;9.710;2023-04-29T04:45:01;0.30;;;0.30;;
16466;SDS011;8344;47.560;9.710;2023-04-29T04:47:26;0.30;;;0.30;;
16466;SDS011;8344;47.560;9.710;2023-04-29T04:49:52;0.25;;;0.25;;
16466;SDS011;8344;47.560;9.710;2023-04-29T04:52:20;0.30;;;0.30;;
16466;SDS011;8344;47.560;9.710;2023-04-29T04:54:46;0.30;;;0.30;;
16466;SDS011;8344;47.560;9.710;2023-04-29T04:57:11;0.30;;;0.30;;
16466;SDS011;8344;47.560;9.710;2023-04-29T04:59:36;0.40;;;0.40;;
16466;SDS011;8344;47.560;9.710;2023-04-29T05:02:02;0.20;;;0.20;;
16466;SDS011;8344;47.560;9.710;2023-04-29T05:04:27;0.30;;;0.30;;
16466;SDS011;8344;47.560;9.710;2023-04-29T05:06:52;0.40;;;0.40;;
16466;SDS011;8344;47.560;9.710;2023-04-29T05:09:18;0.38;;;0.38;;
16466;SDS011;8344;47.560;9.710;2023-04-29T05:11:43;0.40;;;0.40;;
16466;SDS011;8344;47.560;9.710;2023-04-29T05:14:08;0.30;;;0.30;;
16466;SDS011;8344;47.560;9.710;2023-04-29T05:16:33;0.30;;;0.30;;
16466;SDS011;8344;47.560;9.710;2023-04-29T05:18:59;0.20;;;0.20;;
16466;SDS011;8344;47.560;9.710;2023-04-29T05:21:24;0.30;;;0.30;;
16466;SDS011;8344;47.560;9.710;2023-04-29T05:23:49;0.25;;;0.25;;
16466;SDS011;8344;47.560;9.710;2023-04-29T05:26:15;0.40;;;0.40;;
16466;SDS011;8344;47.560;9.710;2023-04-29T05:28:40;0.40;;;0.40;;
16466;SDS011;8344;47.560;9.710;2023-04-29T05:31:05;0.40;;;0.40;;
16466;SDS011;8344;47.560;9.710;2023-04-29T05:33:31;0.30;;;0.30;;
16466;SDS011;8344;47.560;9.710;2023-04-29T05:35:56;0.30;;;0.30;;
16466;SDS011;8344;47.560;9.710;2023-04-29T05:38:21;0.30;;;0.30;;
16466;SDS011;8344;47.560;9.710;2023-04-29T05:40:52;0.40;;;0.40;;
16466;SDS011;8344;47.560;9.710;2023-04-29T05:43:18;0.30;;;0.30;;
16466;SDS011;8344;47.560;9.710;2023-04-29T05:45:45;0.20;;;0.20;;
16466;SDS011;8344;47.560;9.710;2023-04-29T05:48:11;0.30;;;0.30;;
16466;SDS011;8344;47.560;9.710;2023-04-29T05:50:36;0.20;;;0.20;;
16466;SDS011;8344;47.560;9.710;2023-04-29T05:53:01;0.30;;;0.30;;
16466;SDS011;8344;47.560;9.710;2023-04-29T05:55:27;0.30;;;0.30;;
16466;SDS011;8344;47.560;9.710;2023-04-29T05:57:52;0.40;;;0.40;;
16466;SDS011;8344;47.560;9.710;2023-04-29T06:00:17;0.20;;;0.20;;
16466;SDS011;8344;47.560;9.710;2023-04-29T06:02:43;0.20;;;0.20;;
16466;SDS011;8344;47.560;9.710;2023-04-29T06:05:09;0.38;;;0.38;;
16466;SDS011;8344;47.560;9.710;2023-04-29T06:07:35;0.30;;;0.30;;
16466;SDS011;8344;47.560;9.710;2023-04-29T06:10:00;0.20;;;0.20;;
16466;SDS011;8344;47.560;9.710;2023-04-29T06:12:26;0.30;;;0.30;;
16466;SDS011;8344;47.560;9.710;2023-04-29T06:14:51;0.30;;;0.30;;
16466;SDS011;8344;47.560;9.710;2023-04-29T06:17:16;0.30;;;0.30;;
16466;SDS011;8344;47.560;9.710;2023-04-29T06:19:42;0.20;;;0.20;;
16466;SDS011;8344;47.560;9.710;2023-04-29T06:22:07;0.22;;;0.22;;
16466;SDS011;8344;47.560;9.710;2023-04-29T06:24:32;0.30;;;0.30;;
16466;SDS011;8344;47.560;9.710;2023-04-29T06:26:58;0.30;;;0.30;;
16466;SDS011;8344;47.560;9.710;2023-04-29T06:29:23;0.28;;;0.28;;
16466;SDS011;8344;47.560;9.710;2023-04-29T06:31:48;0.20;;;0.20;;
16466;SDS011;8344;47.560;9.710;2023-04-29T06:34:13;0.30;;;0.30;;
16466;SDS011;8344;47.560;9.710;2023-04-29T06:36:39;0.20;;;0.20;;
16466;SDS011;8344;47.560;9.710;2023-04-29T06:39:05;0.30;;;0.30;;
16466;SDS011;8344;47.560;9.710;2023-04-29T06:41:30;0.30;;;0.30;;
16466;SDS011;8344;47.560;9.710;2023-04-29T06:43:56;0.30;;;0.30;;
16466;SDS011;8344;47.560;9.710;2023-04-29T06:46:21;0.30;;;0.30;;
16466;SDS011;8344;47.560;9.710;2023-04-29T06:48:46;0.30;;;0.30;;
16466;SDS011;8344;47.560;9.710;2023-04-29T06:51:12;0.25;;;0.25;;
16466;SDS011;8344;47.560;9.710;2023-04-29T06:53:37;0.20;;;0.20;;
16466;SDS011;8344;47.560;9.710;2023-04-29T06:56:02;0.30;;;0.30;;
16466;SDS011;8344;47.560;9.710;2023-04-29T06:58:29;0.30;;;0.30;;
16466;SDS011;8344;47.560;9.710;2023-04-29T07:00:54;0.20;;;0.20;;
16466;SDS011;8344;47.560;9.710;2023-04-29T07:03:20;0.20;;;0.20;;
16466;SDS011;8344;47.560;9.710;2023-04-29T07:05:45;0.30;;;0.30;;
16466;SDS011;8344;47.560;9.710;2023-04-29T07:08:11;0.20;;;0.20;;
16466;SDS011;8344;47.560;9.710;2023-04-29T07:10:37;0.30;;;0.30;;
16466;SDS011;8344;47.560;9.710;2023-04-29T07:13:03;0.30;;;0.30;;
16466;SDS011;8344;47.560;9.710;2023-04-29T07:15:29;0.20;;;0.20;;
16466;SDS011;8344;47.560;9.710;2023-04-29T07:17:54;0.20;;;0.20;;
16466;SDS011;8344;47.560;9.710;2023-04-29T07:20:20;0.30;;;0.30;;
16466;SDS011;8344;47.560;9.710;2023-04-29T07:22:45;0.30;;;0.30;;
16466;SDS011;8344;47.560;9.710;2023-04-29T07:25:11;0.30;;;0.30;;
16466;SDS011;8344;47.560;9.710;2023-04-29T07:27:36;0.30;;;0.30;;
16466;SDS011;8344;47.560;9.710;2023-04-29T07:30:02;0.35;;;0.35;;
16466;SDS011;8344;47.560;9.710;2023-04-29T07:32:28;0.25;;;0.25;;
16466;SDS011;8344;47.560;9.710;2023-04-29T07:34:55;0.30;;;0.30;;
16466;SDS011;8344;47.560;9.710;2023-04-29T07:37:21;0.30;;;0.30;;
16466;SDS011;8344;47.560;9.710;2023-04-29T07:39:46;0.30;;;0.30;;
16466;SDS011;8344;47.560;9.710;2023-04-29T07:42:11;0.30;;;0.30;;
16466;SDS011;8344;47.560;9.710;2023-04-29T07:44:37;0.20;;;0.20;;
16466;SDS011;8344;47.560;9.710;2023-04-29T07:47:02;0.20;;;0.20;;
16466;SDS011;8344;47.560;9.710;2023-04-29T07:49:27;0.20;;;0.20;;
16466;SDS011;8344;47.560;9.710;2023-04-29T07:51:53;0.30;;;0.30;;
16466;SDS011;8344;47.560;9.710;2023-04-29T07:54:18;0.30;;;0.30;;
16466;SDS011;8344;47.560;9.710;2023-04-29T07:56:44;0.20;;;0.20;;
16466;SDS011;8344;47.560;9.710;2023-04-29T07:59:09;0.30;;;0.30;;
16466;SDS011;8344;47.560;9.710;2023-04-29T08:01:35;0.30;;;0.30;;
16466;SDS011;8344;47.560;9.710;2023-04-29T08:04:00;0.20;;;0.20;;
16466;SDS011;8344;47.560;9.710;2023-04-29T08:06:25;0.25;;;0.25;;
16466;SDS011;8344;47.560;9.710;2023-04-29T08:08:51;0.20;;;0.20;;
16466;SDS011;8344;47.560;9.710;2023-04-29T08:11:16;0.20;;;0.20;;
16466;SDS011;8344;47.560;9.710;2023-04-29T08:13:45;0.30;;;0.30;;
16466;SDS011;8344;47.560;9.710;2023-04-29T08:16:11;0.30;;;0.30;;
16466;SDS011;8344;47.560;9.710;2023-04-29T08:18:37;0.30;;;0.30;;
16466;SDS011;8344;47.560;9.710;2023-04-29T08:21:03;0.30;;;0.30;;
16466;SDS011;8344;47.560;9.710;2023-04-29T08:23:28;0.20;;;0.20;;
16466;SDS011;8344;47.560;9.710;2023-04-29T08:25:53;0.28;;;0.28;;
16466;SDS011;8344;47.560;9.710;2023-04-29T08:28:20;0.20;;;0.20;;
16466;SDS011;8344;47.560;9.710;2023-04-29T08:30:48;0.20;;;0.20;;
16466;SDS011;8344;47.560;9.710;2023-04-29T08:33:14;0.20;;;0.20;;
16466;SDS011;8344;47.560;9.710;2023-04-29T08:35:39;0.20;;;0.20;;
16466;SDS011;8344;47.560;9.710;2023-04-29T08:38:05;0.28;;;0.28;;
16466;SDS011;8344;47.560;9.710;2023-04-29T08:40:49;0.22;;;0.22;;
16466;SDS011;8344;47.560;9.710;2023-04-29T08:43:14;0.20;;;0.20;;
16466;SDS011;8344;47.560;9.710;2023-04-29T08:45:41;0.30;;;0.30;;
16466;SDS011;8344;47.560;9.710;2023-04-29T08:48:07;0.20;;;0.20;;
16466;SDS011;8344;47.560;9.710;2023-04-29T08:50:36;0.30;;;0.30;;
16466;SDS011;8344;47.560;9.710;2023-04-29T08:53:03;0.20;;;0.20;;
16466;SDS011;8344;47.560;9.710;2023-04-29T08:55:30;0.20;;;0.20;;
16466;SDS011;8344;47.560;9.710;2023-04-29T08:57:56;0.20;;;0.20;;
16466;SDS011;8344;47.560;9.710;2023-04-29T09:00:21;0.20;;;0.20;;
16466;SDS011;8344;47.560;9.710;2023-04-29T09:02:49;0.28;;;0.28;;
16466;SDS011;8344;47.560;9.710;2023-04-29T09:05:15;0.20;;;0.20;;
16466;SDS011;8344;47.560;9.710;2023-04-29T09:07:41;0.20;;;0.20;;
16466;SDS011;8344;47.560;9.710;2023-04-29T09:10:08;0.20;;;0.20;;
16466;SDS011;8344;47.560;9.710;2023-04-29T09:12:33;0.30;;;0.30;;
16466;SDS011;8344;47.560;9.710;2023-04-29T09:15:00;0.20;;;0.20;;
16466;SDS011;8344;47.560;9.710;2023-04-29T09:17:41;0.20;;;0.20;;
16466;SDS011;8344;47.560;9.710;2023-04-29T09:22:48;0.20;;;0.20;;
16466;SDS011;8344;47.560;9.710;2023-04-29T09:25:14;0.20;;;0.20;;
16466;SDS011;8344;47.560;9.710;2023-04-29T09:27:39;0.20;;;0.20;;
16466;SDS011;8344;47.560;9.710;2023-04-29T09:30:05;0.20;;;0.20;;
16466;SDS011;8344;47.560;9.710;2023-04-29T09:32:31;0.20;;;0.20;;
16466;SDS011;8344;47.560;9.710;2023-04-29T09:34:56;0.20;;;0.20;;
16466;SDS011;8344;47.560;9.710;2023-04-29T09:37:25;0.10;;;0.10;;
16466;SDS011;8344;47.560;9.710;2023-04-29T09:39:52;0.20;;;0.20;;
16466;SDS011;8344;47.560;9.710;2023-04-29T09:42:17;0.10;;;0.10;;
16466;SDS011;8344;47.560;9.710;2023-04-29T09:44:43;0.10;;;0.10;;
16466;SDS011;8344;47.560;9.710;2023-04-29T09:47:09;0.15;;;0.15;;
16466;SDS011;8344;47.560;9.710;2023-04-29T09:49:39;0.15;;;0.15;;
16466;SDS011;8344;47.560;9.710;2023-04-29T09:52:13;0.15;;;0.15;;
16466;SDS011;8344;47.560;9.710;2023-04-29T09:54:41;0.10;;;0.10;;
16466;SDS011;8344;47.560;9.710;2023-04-29T09:57:07;0.20;;;0.20;;
16466;SDS011;8344;47.560;9.710;2023-04-29T09:59:34;0.20;;;0.20;;
16466;SDS011;8344;47.560;9.710;2023-04-29T10:02:01;0.20;;;0.20;;
16466;SDS011;8344;47.560;9.710;2023-04-29T10:04:34;0.20;;;0.20;;
16466;SDS011;8344;47.560;9.710;2023-04-29T10:06:59;0.10;;;0.10;;
16466;SDS011;8344;47.560;9.710;2023-04-29T10:09:25;0.10;;;0.10;;
16466;SDS011;8344;47.560;9.710;2023-04-29T10:11:51;0.22;;;0.22;;
16466;SDS011;8344;47.560;9.710;2023-04-29T10:14:18;0.10;;;0.10;;
16466;SDS011;8344;47.560;9.710;2023-04-29T10:16:47;0.10;;;0.10;;
16466;SDS011;8344;47.560;9.710;2023-04-29T10:19:18;0.10;;;0.10;;
16466;SDS011;8344;47.560;9.710;2023-04-29T10:21:52;0.10;;;0.10;;
16466;SDS011;8344;47.560;9.710;2023-04-29T10:24:19;0.20;;;0.20;;
16466;SDS011;8344;47.560;9.710;2023-04-29T10:26:45;0.15;;;0.15;;
16466;SDS011;8344;47.560;9.710;2023-04-29T10:29:11;0.10;;;0.10;;
16466;SDS011;8344;47.560;9.710;2023-04-29T10:31:38;0.10;;;0.10;;
16466;SDS011;8344;47.560;9.710;2023-04-29T10:34:03;0.20;;;0.20;;
16466;SDS011;8344;47.560;9.710;2023-04-29T10:36:29;0.20;;;0.20;;
16466;SDS011;8344;47.560;9.710;2023-04-29T10:38:56;0.10;;;0.10;;
16466;SDS011;8344;47.560;9.710;2023-04-29T10:41:26;0.20;;;0.20;;
16466;SDS011;8344;47.560;9.710;2023-04-29T10:43:53;0.10;;;0.10;;
16466;SDS011;8344;47.560;9.710;2023-04-29T10:48:46;0.20;;;0.20;;
16466;SDS011;8344;47.560;9.710;2023-04-29T10:51:12;0.10;;;0.10;;
16466;SDS011;8344;47.560;9.710;2023-04-29T10:54:35;0.30;;;0.30;;
16466;SDS011;8344;47.560;9.710;2023-04-29T10:59:12;0.20;;;0.20;;
16466;SDS011;8344;47.560;9.710;2023-04-29T11:01:48;0.20;;;0.20;;
16466;SDS011;8344;47.560;9.710;2023-04-29T11:04:17;0.13;;;0.13;;
16466;SDS011;8344;47.560;9.710;2023-04-29T11:06:50;0.20;;;0.20;;
16466;SDS011;8344;47.560;9.710;2023-04-29T11:14:22;0.10;;;0.10;;
16466;SDS011;8344;47.560;9.710;2023-04-29T11:16:55;0.10;;;0.10;;
16466;SDS011;8344;47.560;9.710;2023-04-29T11:19:23;0.10;;;0.10;;
16466;SDS011;8344;47.560;9.710;2023-04-29T11:21:52;0.10;;;0.10;;
16466;SDS011;8344;47.560;9.710;2023-04-29T11:24:28;0.20;;;0.20;;
16466;SDS011;8344;47.560;9.710;2023-04-29T11:26:53;0.10;;;0.10;;
16466;SDS011;8344;47.560;9.710;2023-04-29T11:29:18;0.10;;;0.10;;
16466;SDS011;8344;47.560;9.710;2023-04-29T11:31:45;0.10;;;0.10;;
16466;SDS011;8344;47.560;9.710;2023-04-29T11:34:10;0.10;;;0.10;;
16466;SDS011;8344;47.560;9.710;2023-04-29T11:36:36;0.10;;;0.10;;
16466;SDS011;8344;47.560;9.710;2023-04-29T11:39:01;0.10;;;0.10;;
16466;SDS011;8344;47.560;9.710;2023-04-29T11:41:28;0.10;;;0.10;;
16466;SDS011;8344;47.560;9.710;2023-04-29T11:43:53;0.20;;;0.20;;
16466;SDS011;8344;47.560;9.710;2023-04-29T11:46:20;0.17;;;0.17;;
16466;SDS011;8344;47.560;9.710;2023-04-29T11:48:46;0.15;;;0.15;;
16466;SDS011;8344;47.560;9.710;2023-04-29T11:51:12;0.15;;;0.15;;
16466;SDS011;8344;47.560;9.710;2023-04-29T11:53:38;0.13;;;0.13;;
16466;SDS011;8344;47.560;9.710;2023-04-29T11:56:03;0.10;;;0.10;;
16466;SDS011;8344;47.560;9.710;2023-04-29T11:58:29;0.15;;;0.15;;
16466;SDS011;8344;47.560;9.710;2023-04-29T12:00:54;0.17;;;0.17;;
16466;SDS011;8344;47.560;9.710;2023-04-29T12:03:20;0.13;;;0.13;;
16466;SDS011;8344;47.560;9.710;2023-04-29T12:05:52;0.10;;;0.10;;
16466;SDS011;8344;47.560;9.710;2023-04-29T12:10:50;0.10;;;0.10;;
16466;SDS011;8344;47.560;9.710;2023-04-29T12:13:16;0.10;;;0.10;;
16466;SDS011;8344;47.560;9.710;2023-04-29T12:15:43;0.20;;;0.20;;
16466;SDS011;8344;47.560;9.710;2023-04-29T12:18:10;0.20;;;0.20;;
16466;SDS011;8344;47.560;9.710;2023-04-29T12:20:36;0.20;;;0.20;;
16466;SDS011;8344;47.560;9.710;2023-04-29T12:23:13;0.10;;;0.10;;
16466;SDS011;8344;47.560;9.710;2023-04-29T12:25:39;0.20;;;0.20;;
16466;SDS011;8344;47.560;9.710;2023-04-29T12:28:10;0.20;;;0.20;;
16466;SDS011;8344;47.560;9.710;2023-04-29T12:30:36;0.10;;;0.10;;
16466;SDS011;8344;47.560;9.710;2023-04-29T12:33:01;0.10;;;0.10;;
16466;SDS011;8344;47.560;9.710;2023-04-29T12:35:26;0.20;;;0.20;;
16466;SDS011;8344;47.560;9.710;2023-04-29T12:37:52;0.20;;;0.20;;
16466;SDS011;8344;47.560;9.710;2023-04-29T12:40:17;0.10;;;0.10;;
16466;SDS011;8344;47.560;9.710;2023-04-29T12:42:44;0.13;;;0.13;;
16466;SDS011;8344;47.560;9.710;2023-04-29T12:45:29;0.20;;;0.20;;
16466;SDS011;8344;47.560;9.710;2023-04-29T12:47:56;0.20;;;0.20;;
16466;SDS011;8344;47.560;9.710;2023-04-29T12:50:29;0.10;;;0.10;;
16466;SDS011;8344;47.560;9.710;2023-04-29T12:52:55;0.10;;;0.10;;
16466;SDS011;8344;47.560;9.710;2023-04-29T12:55:21;0.15;;;0.15;;
16466;SDS011;8344;47.560;9.710;2023-04-29T12:57:46;0.10;;;0.10;;
16466;SDS011;8344;47.560;9.710;2023-04-29T13:00:11;0.10;;;0.10;;
16466;SDS011;8344;47.560;9.710;2023-04-29T13:02:37;0.10;;;0.10;;
16466;SDS011;8344;47.560;9.710;2023-04-29T13:05:02;0.10;;;0.10;;
16466;SDS011;8344;47.560;9.710;2023-04-29T13:07:28;0.10;;;0.10;;
16466;SDS011;8344;47.560;9.710;2023-04-29T13:09:53;0.20;;;0.20;;
16466;SDS011;8344;47.560;9.710;2023-04-29T13:12:19;0.10;;;0.10;;
16466;SDS011;8344;47.560;9.710;2023-04-29T13:14:44;0.10;;;0.10;;
16466;SDS011;8344;47.560;9.710;2023-04-29T13:17:09;0.20;;;0.20;;
16466;SDS011;8344;47.560;9.710;2023-04-29T13:19:34;0.10;;;0.10;;
16466;SDS011;8344;47.560;9.710;2023-04-29T13:22:00;0.15;;;0.15;;
16466;SDS011;8344;47.560;9.710;2023-04-29T13:24:25;0.10;;;0.10;;
16466;SDS011;8344;47.560;9.710;2023-04-29T13:26:51;0.10;;;0.10;;
16466;SDS011;8344;47.560;9.710;2023-04-29T13:29:16;0.10;;;0.10;;
16466;SDS011;8344;47.560;9.710;2023-04-29T13:31:42;0.10;;;0.10;;
16466;SDS011;8344;47.560;9.710;2023-04-29T13:34:08;0.10;;;0.10;;
16466;SDS011;8344;47.560;9.710;2023-04-29T13:36:33;0.10;;;0.10;;
16466;SDS011;8344;47.560;9.710;2023-04-29T13:38:58;0.17;;;0.17;;
16466;SDS011;8344;47.560;9.710;2023-04-29T13:41:23;0.10;;;0.10;;
16466;SDS011;8344;47.560;9.710;2023-04-29T13:43:50;0.10;;;0.10;;
16466;SDS011;8344;47.560;9.710;2023-04-29T13:46:15;0.20;;;0.20;;
16466;SDS011;8344;47.560;9.710;2023-04-29T13:48:41;0.10;;;0.10;;
16466;SDS011;8344;47.560;9.710;2023-04-29T13:51:06;0.10;;;0.10;;
16466;SDS011;8344;47.560;9.710;2023-04-29T13:53:31;0.10;;;0.10;;
16466;SDS011;8344;47.560;9.710;2023-04-29T13:55:56;0.20;;;0.20;;
16466;SDS011;8344;47.560;9.710;2023-04-29T13:58:23;0.10;;;0.10;;
16466;SDS011;8344;47.560;9.710;2023-04-29T14:00:48;0.17;;;0.17;;
16466;SDS011;8344;47.560;9.710;2023-04-29T14:03:13;0.22;;;0.22;;
16466;SDS011;8344;47.560;9.710;2023-04-29T14:05:39;0.10;;;0.10;;
16466;SDS011;8344;47.560;9.710;2023-04-29T14:08:05;0.10;;;0.10;;
16466;SDS011;8344;47.560;9.710;2023-04-29T14:10:30;0.20;;;0.20;;
16466;SDS011;8344;47.560;9.710;2023-04-29T14:12:56;0.20;;;0.20;;
16466;SDS011;8344;47.560;9.710;2023-04-29T14:15:21;0.20;;;0.20;;
16466;SDS011;8344;47.560;9.710;2023-04-29T14:17:46;0.10;;;0.10;;
16466;SDS011;8344;47.560;9.710;2023-04-29T14:20:14;0.20;;;0.20;;
16466;SDS011;8344;47.560;9.710;2023-04-29T14:22:39;0.10;;;0.10;;
16466;SDS011;8344;47.560;9.710;2023-04-29T14:25:04;0.20;;;0.20;;
16466;SDS011;8344;47.560;9.710;2023-04-29T14:27:30;0.20;;;0.20;;
16466;SDS011;8344;47.560;9.710;2023-04-29T14:29:56;0.30;;;0.30;;
16466;SDS011;8344;47.560;9.710;2023-04-29T14:32:21;0.10;;;0.10;;
16466;SDS011;8344;47.560;9.710;2023-04-29T14:34:46;0.20;;;0.20;;
16466;SDS011;8344;47.560;9.710;2023-04-29T14:37:11;0.20;;;0.20;;
16466;SDS011;8344;47.560;9.710;2023-04-29T14:39:37;0.10;;;0.10;;
16466;SDS011;8344;47.560;9.710;2023-04-29T14:42:02;0.20;;;0.20;;
16466;SDS011;8344;47.560;9.710;2023-04-29T14:44:27;0.20;;;0.20;;
16466;SDS011;8344;47.560;9.710;2023-04-29T14:46:53;0.20;;;0.20;;
16466;SDS011;8344;47.560;9.710;2023-04-29T14:49:18;0.30;;;0.30;;
16466;SDS011;8344;47.560;9.710;2023-04-29T14:51:43;0.20;;;0.20;;
16466;SDS011;8344;47.560;9.710;2023-04-29T14:54:09;0.10;;;0.10;;
16466;SDS011;8344;47.560;9.710;2023-04-29T14:56:35;0.20;;;0.20;;
16466;SDS011;8344;47.560;9.710;2023-04-29T14:59:01;0.20;;;0.20;;
16466;SDS011;8344;47.560;9.710;2023-04-29T15:01:27;0.20;;;0.20;;
16466;SDS011;8344;47.560;9.710;2023-04-29T15:03:52;0.20;;;0.20;;
16466;SDS011;8344;47.560;9.710;2023-04-29T15:06:18;0.10;;;0.10;;
16466;SDS011;8344;47.560;9.710;2023-04-29T15:08:44;0.17;;;0.17;;
16466;SDS011;8344;47.560;9.710;2023-04-29T15:11:09;0.20;;;0.20;;
16466;SDS011;8344;47.560;9.710;2023-04-29T15:13:34;0.30;;;0.30;;
16466;SDS011;8344;47.560;9.710;2023-04-29T15:16:00;0.20;;;0.20;;
16466;SDS011;8344;47.560;9.710;2023-04-29T15:18:25;0.10;;;0.10;;
16466;SDS011;8344;47.560;9.710;2023-04-29T15:20:50;0.20;;;0.20;;